createdAt,value
2023-05-07T00:01:42.470Z,12.20
2023-05-07T00:04:11.278Z,12.20
2023-05-07T00:06:41.733Z,12.20
2023-05-07T00:09:09.871Z,12.10
2023-05-07T00:11:38.157Z,12.20
2023-05-07T00:14:06.451Z,12.20
2023-05-07T00:16:34.801Z,12.20
2023-05-07T00:19:03.044Z,12.20
2023-05-07T00:21:31.529Z,12.30
2023-05-07T00:24:01.131Z,12.30
2023-05-07T00:26:29.301Z,12.30
2023-05-07T00:28:58.139Z,12.40
2023-05-07T00:31:26.346Z,12.40
2023-05-07T00:33:54.539Z,12.50
2023-05-07T00:36:22.678Z,12.50
2023-05-07T00:38:50.853Z,12.50
2023-05-07T00:41:21.030Z,12.50
2023-05-07T00:43:49.597Z,12.50
2023-05-07T00:46:17.932Z,12.50
2023-05-07T00:48:47.097Z,12.50
2023-05-07T00:51:16.268Z,12.50
2023-05-07T00:53:45.120Z,12.60
2023-05-07T00:56:14.071Z,12.50
2023-05-07T00:58:44.121Z,12.50
2023-05-07T01:01:12.394Z,12.60
2023-05-07T01:03:40.772Z,12.60
2023-05-07T01:06:13.604Z,12.60
2023-05-07T01:08:44.058Z,12.60
2023-05-07T01:11:13.476Z,12.70
2023-05-07T01:13:43.689Z,12.70
2023-05-07T01:16:12.409Z,12.70
2023-05-07T01:18:41.207Z,12.70
2023-05-07T01:21:13.196Z,12.70
2023-05-07T01:23:43.527Z,12.70
2023-05-07T01:26:11.735Z,12.70
2023-05-07T01:28:40.409Z,12.70
2023-05-07T01:31:11.258Z,12.70
2023-05-07T01:33:43.562Z,12.80
2023-05-07T01:36:13.384Z,12.80
2023-05-07T01:38:44.430Z,12.80
2023-05-07T01:41:13.999Z,12.80
2023-05-07T01:43:43.575Z,12.90
2023-05-07T01:46:12.877Z,12.90
2023-05-07T01:48:41.508Z,12.90
2023-05-07T01:51:10.878Z,12.90
2023-05-07T01:53:39.301Z,12.90
2023-05-07T01:56:09.692Z,12.90
2023-05-07T01:58:40.783Z,12.90
2023-05-07T02:01:10.081Z,12.90
2023-05-07T02:03:38.841Z,12.90
2023-05-07T02:06:13.950Z,12.80
2023-05-07T02:08:42.259Z,12.80
2023-05-07T02:11:12.889Z,12.80
2023-05-07T02:13:41.099Z,12.70
2023-05-07T02:16:09.584Z,12.70
2023-05-07T02:18:37.750Z,12.70
2023-05-07T02:21:06.115Z,12.60
2023-05-07T02:23:34.462Z,12.60
2023-05-07T02:26:03.132Z,12.60
2023-05-07T02:28:32.665Z,12.50
2023-05-07T02:31:05.973Z,12.40
2023-05-07T02:33:35.884Z,12.40
2023-05-07T02:36:10.006Z,12.40
2023-05-07T02:38:43.129Z,12.30
2023-05-07T02:41:11.995Z,12.30
2023-05-07T02:43:41.553Z,12.20
2023-05-07T02:46:11.350Z,12.20
2023-05-07T02:48:43.993Z,12.10
2023-05-07T02:51:12.190Z,12.10
2023-05-07T02:53:42.921Z,12.10
2023-05-07T02:56:11.097Z,12.10
2023-05-07T02:58:40.949Z,12.00
2023-05-07T03:01:09.906Z,12.00
2023-05-07T03:03:54.776Z,12.00
2023-05-07T03:06:23.005Z,12.00
2023-05-07T03:08:51.141Z,11.90
2023-05-07T03:11:19.351Z,11.90
2023-05-07T03:13:50.405Z,11.90
2023-05-07T03:16:20.179Z,11.90
2023-05-07T03:18:48.444Z,11.90
2023-05-07T03:21:16.840Z,11.90
2023-05-07T03:23:44.998Z,11.80
2023-05-07T03:26:13.179Z,11.80
2023-05-07T03:28:41.293Z,11.90
2023-05-07T03:31:15.217Z,11.90
2023-05-07T03:33:53.783Z,11.90
2023-05-07T03:36:22.632Z,11.90
2023-05-07T03:38:51.905Z,11.90
2023-05-07T03:41:22.846Z,11.90
2023-05-07T03:43:51.133Z,11.90
2023-05-07T03:46:20.800Z,11.90
2023-05-07T03:48:49.048Z,11.90
2023-05-07T03:51:18.324Z,11.90
2023-05-07T03:53:46.484Z,11.90
2023-05-07T03:56:14.654Z,11.90
2023-05-07T03:58:43.724Z,11.90
2023-05-07T04:01:13.410Z,12.00
2023-05-07T04:03:43.162Z,12.00
2023-05-07T04:06:11.589Z,12.00
2023-05-07T04:08:39.923Z,12.00
2023-05-07T04:11:09.324Z,12.00
2023-05-07T04:13:39.074Z,12.00
2023-05-07T04:16:10.234Z,12.00
2023-05-07T04:18:40.035Z,12.00
2023-05-07T04:21:16.950Z,12.00
2023-05-07T04:23:45.689Z,12.00
2023-05-07T04:26:16.604Z,12.00
2023-05-07T04:28:46.276Z,12.00
2023-05-07T04:31:14.610Z,12.10
2023-05-07T04:33:42.917Z,12.10
2023-05-07T04:36:15.606Z,12.10
2023-05-07T04:38:52.680Z,12.20
2023-05-07T04:41:22.103Z,12.20
2023-05-07T04:43:50.863Z,12.30
2023-05-07T04:46:21.414Z,12.40
2023-05-07T04:48:51.359Z,12.40
2023-05-07T04:51:20.868Z,12.50
2023-05-07T04:53:50.316Z,12.50
2023-05-07T04:56:18.538Z,12.60
2023-05-07T04:58:48.364Z,12.70
2023-05-07T05:01:19.366Z,12.80
2023-05-07T05:03:47.696Z,12.90
2023-05-07T05:06:16.259Z,12.90
2023-05-07T05:08:45.869Z,13.00
2023-05-07T05:11:14.411Z,13.10
2023-05-07T05:13:42.767Z,13.20
2023-05-07T05:16:15.928Z,13.30
2023-05-07T05:18:44.423Z,13.50
2023-05-07T05:21:14.718Z,13.60
2023-05-07T05:23:47.330Z,13.70
2023-05-07T05:26:19.612Z,13.90
2023-05-07T05:28:47.856Z,14.00
2023-05-07T05:31:18.430Z,14.10
2023-05-07T05:33:47.276Z,14.20
2023-05-07T05:36:15.504Z,14.40
2023-05-07T05:38:47.096Z,14.50
2023-05-07T05:41:16.032Z,14.60
2023-05-07T05:43:44.213Z,14.70
2023-05-07T05:46:13.205Z,14.80
2023-05-07T05:48:41.519Z,14.90
2023-05-07T05:51:10.538Z,15.00
2023-05-07T05:53:38.734Z,15.20
2023-05-07T05:56:10.042Z,15.30
2023-05-07T05:58:40.287Z,15.40
2023-05-07T06:01:09.975Z,15.50
2023-05-07T06:03:39.461Z,15.60
2023-05-07T06:06:15.418Z,15.70
2023-05-07T06:08:44.739Z,15.80
2023-05-07T06:11:16.984Z,15.90
2023-05-07T06:13:47.760Z,16.00
2023-05-07T06:16:16.786Z,16.10
2023-05-07T06:18:46.325Z,16.20
2023-05-07T06:21:16.241Z,16.30
2023-05-07T06:23:44.767Z,16.40
2023-05-07T06:26:13.030Z,16.40
2023-05-07T06:28:45.210Z,16.50
2023-05-07T06:31:16.872Z,16.70
2023-05-07T06:33:49.934Z,16.70
2023-05-07T06:36:18.391Z,16.80
2023-05-07T06:38:48.292Z,17.00
2023-05-07T06:41:17.452Z,17.10
2023-05-07T06:43:47.299Z,17.20
2023-05-07T06:46:53.885Z,17.30
2023-05-07T06:49:22.337Z,17.40
2023-05-07T06:51:51.418Z,17.60
2023-05-07T06:54:21.272Z,17.70
2023-05-07T06:56:49.606Z,17.80
2023-05-07T06:59:20.309Z,18.00
2023-05-07T07:01:48.729Z,18.30
2023-05-07T07:04:17.859Z,18.50
2023-05-07T07:06:50.928Z,18.80
2023-05-07T07:09:19.211Z,19.00
2023-05-07T07:11:47.452Z,19.20
2023-05-07T07:14:15.882Z,19.40
2023-05-07T07:16:50.965Z,19.50
2023-05-07T07:19:21.312Z,19.70
2023-05-07T07:21:52.015Z,19.70
2023-05-07T07:24:22.272Z,19.80
2023-05-07T07:26:56.257Z,19.90
2023-05-07T07:29:27.538Z,20.00
2023-05-07T07:31:58.553Z,20.00
2023-05-07T07:34:27.019Z,20.10
2023-05-07T07:36:55.316Z,20.10
2023-05-07T07:39:23.524Z,20.00
2023-05-07T07:41:55.382Z,20.00
2023-05-07T07:44:24.142Z,20.00
2023-05-07T07:47:01.487Z,20.00
2023-05-07T07:49:30.546Z,20.00
2023-05-07T07:52:01.658Z,20.10
2023-05-07T07:54:31.254Z,20.10
2023-05-07T07:57:00.018Z,20.20
2023-05-07T07:59:28.682Z,20.30
2023-05-07T08:01:58.062Z,20.40
2023-05-07T08:04:29.770Z,20.50
2023-05-07T08:06:59.638Z,20.70
2023-05-07T08:09:28.045Z,20.90
2023-05-07T08:11:57.908Z,21.00
2023-05-07T08:14:26.300Z,21.10
2023-05-07T08:16:54.845Z,21.30
2023-05-07T08:19:23.788Z,21.40
2023-05-07T08:21:54.041Z,21.50
2023-05-07T08:24:24.247Z,21.60
2023-05-07T08:26:52.637Z,21.90
2023-05-07T08:29:21.282Z,22.10
2023-05-07T08:31:49.609Z,22.30
2023-05-07T08:34:17.834Z,22.40
2023-05-07T08:36:49.433Z,22.50
2023-05-07T08:39:22.057Z,22.50
2023-05-07T08:41:58.880Z,22.40
2023-05-07T08:44:30.313Z,22.40
2023-05-07T08:47:03.403Z,22.40
2023-05-07T08:49:33.535Z,22.50
2023-05-07T08:52:02.679Z,22.60
2023-05-07T08:54:34.210Z,22.80
2023-05-07T08:57:03.672Z,23.00
2023-05-07T08:59:32.788Z,23.10
2023-05-07T09:02:01.441Z,23.40
2023-05-07T09:04:30.094Z,23.60
2023-05-07T09:07:04.616Z,23.70
2023-05-07T09:09:35.489Z,23.80
2023-05-07T09:12:06.229Z,24.00
2023-05-07T09:14:36.138Z,24.10
2023-05-07T09:17:05.801Z,24.00
2023-05-07T09:19:33.930Z,24.00
2023-05-07T09:22:08.002Z,24.10
2023-05-07T09:24:51.107Z,24.40
2023-05-07T09:27:21.887Z,24.30
2023-05-07T09:29:50.079Z,24.30
2023-05-07T09:32:18.851Z,24.30
2023-05-07T09:34:48.174Z,24.40
2023-05-07T09:37:18.717Z,24.40
2023-05-07T09:39:52.522Z,24.30
2023-05-07T09:42:27.521Z,24.20
2023-05-07T09:44:58.641Z,24.40
2023-05-07T09:47:37.769Z,24.70
2023-05-07T09:50:12.536Z,25.00
2023-05-07T09:52:43.628Z,25.30
2023-05-07T09:55:15.729Z,25.50
2023-05-07T09:57:46.401Z,25.50
2023-05-07T10:00:16.890Z,25.60
2023-05-07T10:02:54.206Z,25.70
2023-05-07T10:05:35.760Z,25.90
2023-05-07T10:08:05.137Z,26.00
2023-05-07T10:10:37.299Z,26.20
2023-05-07T10:13:11.676Z,26.30
2023-05-07T10:15:43.773Z,26.50
2023-05-07T10:18:14.470Z,26.70
2023-05-07T10:20:47.354Z,26.90
2023-05-07T10:23:20.273Z,27.10
2023-05-07T10:25:53.784Z,27.30
2023-05-07T10:28:27.903Z,27.50
2023-05-07T10:31:12.765Z,27.70
2023-05-07T10:33:49.025Z,27.60
2023-05-07T10:36:20.562Z,27.50
2023-05-07T10:38:49.356Z,27.60
2023-05-07T10:41:19.903Z,27.70
2023-05-07T10:43:49.282Z,27.90
2023-05-07T10:46:28.209Z,28.20
2023-05-07T10:49:15.118Z,28.50
2023-05-07T10:52:16.740Z,28.90
2023-05-07T10:55:25.884Z,29.00
2023-05-07T10:58:32.789Z,29.00
2023-05-07T11:01:52.657Z,28.90
2023-05-07T11:04:28.696Z,29.00
2023-05-07T11:07:32.130Z,29.00
2023-05-07T11:10:11.848Z,28.90
2023-05-07T11:12:57.510Z,29.10
2023-05-07T11:15:46.862Z,29.20
2023-05-07T11:18:24.542Z,29.20
2023-05-07T11:20:57.746Z,29.40
2023-05-07T11:24:02.641Z,29.50
2023-05-07T11:26:49.545Z,29.60
2023-05-07T11:29:22.278Z,29.70
2023-05-07T11:31:58.782Z,29.90
2023-05-07T11:34:31.818Z,30.10
2023-05-07T11:37:01.806Z,30.40
2023-05-07T11:39:49.147Z,30.60
2023-05-07T11:42:31.026Z,30.50
2023-05-07T11:44:59.693Z,30.40
2023-05-07T11:47:32.940Z,30.50
2023-05-07T11:50:08.312Z,30.80
2023-05-07T11:52:37.499Z,31.00
2023-05-07T11:55:06.731Z,31.30
2023-05-07T11:57:36.187Z,31.60
2023-05-07T12:00:09.025Z,31.80
2023-05-07T12:02:44.806Z,32.10
2023-05-07T12:05:13.633Z,32.20
2023-05-07T12:07:42.475Z,32.40
2023-05-07T12:10:13.722Z,32.50
2023-05-07T12:12:42.999Z,32.70
2023-05-07T12:15:12.460Z,32.80
2023-05-07T12:17:41.946Z,33.00
2023-05-07T12:20:12.939Z,33.00
2023-05-07T12:22:41.349Z,33.00
2023-05-07T12:25:10.878Z,32.70
2023-05-07T12:27:41.225Z,32.30
2023-05-07T12:30:13.611Z,31.90
2023-05-07T12:32:41.983Z,31.50
2023-05-07T12:35:12.068Z,31.30
2023-05-07T12:37:40.637Z,31.60
2023-05-07T12:40:12.062Z,32.40
2023-05-07T12:42:43.320Z,33.30
2023-05-07T12:45:12.886Z,34.20
2023-05-07T12:47:41.638Z,34.40
2023-05-07T12:50:12.425Z,34.60
2023-05-07T12:52:41.408Z,34.70
2023-05-07T12:55:11.536Z,34.70
2023-05-07T12:57:44.334Z,34.90
2023-05-07T13:00:14.182Z,35.40
2023-05-07T13:02:45.470Z,35.50
2023-05-07T13:05:15.419Z,34.70
2023-05-07T13:07:54.878Z,34.10
2023-05-07T13:10:24.614Z,33.50
2023-05-07T13:12:53.669Z,32.90
2023-05-07T13:15:23.057Z,32.60
2023-05-07T13:17:51.366Z,32.20
2023-05-07T13:20:21.292Z,31.90
2023-05-07T13:22:49.418Z,31.50
2023-05-07T13:25:17.721Z,31.10
2023-05-07T13:27:46.716Z,30.70
2023-05-07T13:30:16.361Z,30.50
2023-05-07T13:32:44.959Z,30.40
2023-05-07T13:35:13.276Z,30.40
2023-05-07T13:37:43.016Z,30.70
2023-05-07T13:40:12.923Z,31.20
2023-05-07T13:42:42.278Z,31.30
2023-05-07T13:45:14.974Z,31.30
2023-05-07T13:47:43.254Z,31.30
2023-05-07T13:50:14.489Z,31.50
2023-05-07T13:52:47.286Z,32.00
2023-05-07T13:55:15.528Z,32.20
2023-05-07T13:57:43.739Z,32.00
2023-05-07T14:00:14.084Z,31.60
2023-05-07T14:02:45.286Z,31.20
2023-05-07T14:05:14.474Z,31.10
2023-05-07T14:07:44.009Z,31.30
2023-05-07T14:10:14.263Z,31.20
2023-05-07T14:12:42.655Z,31.10
2023-05-07T14:15:12.685Z,30.90
2023-05-07T14:17:41.048Z,30.80
2023-05-07T14:20:11.637Z,30.70
2023-05-07T14:22:40.602Z,30.70
2023-05-07T14:25:12.389Z,30.90
2023-05-07T14:27:40.644Z,31.30
2023-05-07T14:30:10.549Z,31.90
2023-05-07T14:32:38.883Z,32.40
2023-05-07T14:35:07.814Z,32.70
2023-05-07T14:37:36.112Z,32.40
2023-05-07T14:40:04.386Z,31.90
2023-05-07T14:42:33.909Z,31.20
2023-05-07T14:45:02.025Z,30.60
2023-05-07T14:47:30.271Z,30.10
2023-05-07T14:50:02.136Z,29.60
2023-05-07T14:52:30.487Z,29.20
2023-05-07T14:54:58.715Z,28.80
2023-05-07T14:57:26.859Z,28.50
2023-05-07T14:59:56.458Z,28.10
2023-05-07T15:02:24.823Z,27.80
2023-05-07T15:04:53.102Z,27.60
2023-05-07T15:07:21.243Z,27.40
2023-05-07T15:09:49.424Z,27.20
2023-05-07T15:12:17.776Z,27.10
2023-05-07T15:14:45.973Z,27.00
2023-05-07T15:17:16.860Z,27.00
2023-05-07T15:19:44.944Z,27.10
2023-05-07T15:22:13.105Z,27.30
2023-05-07T15:24:42.154Z,27.50
2023-05-07T15:27:10.350Z,27.60
2023-05-07T15:29:38.477Z,27.60
2023-05-07T15:32:07.751Z,27.50
2023-05-07T15:34:37.309Z,27.40
2023-05-07T15:37:05.620Z,27.40
2023-05-07T15:39:33.810Z,27.80
2023-05-07T15:42:02.339Z,28.30
2023-05-07T15:44:34.813Z,28.70
2023-05-07T15:47:03.887Z,28.80
2023-05-07T15:49:32.133Z,28.60
2023-05-07T15:52:02.316Z,28.30
2023-05-07T15:54:30.486Z,28.30
2023-05-07T15:56:58.631Z,28.20
2023-05-07T15:59:26.750Z,28.10
2023-05-07T16:01:55.348Z,28.20
2023-05-07T16:04:23.497Z,28.60
2023-05-07T16:06:52.261Z,29.10
2023-05-07T16:09:21.955Z,29.50
2023-05-07T16:11:50.399Z,29.80
2023-05-07T16:14:20.251Z,29.80
2023-05-07T16:16:48.436Z,29.60
2023-05-07T16:19:16.802Z,29.40
2023-05-07T16:21:45.085Z,28.90
2023-05-07T16:24:13.848Z,28.40
2023-05-07T16:26:43.452Z,27.90
2023-05-07T16:29:11.672Z,27.40
2023-05-07T16:31:39.924Z,27.00
2023-05-07T16:34:08.107Z,26.60
2023-05-07T16:36:36.286Z,26.30
2023-05-07T16:39:04.754Z,26.00
2023-05-07T16:41:34.231Z,25.80
2023-05-07T16:44:04.358Z,25.50
2023-05-07T16:46:32.936Z,25.30
2023-05-07T16:49:01.112Z,25.00
2023-05-07T16:51:29.267Z,24.80
2023-05-07T16:53:57.442Z,24.60
2023-05-07T16:56:26.390Z,24.50
2023-05-07T16:58:54.539Z,24.30
2023-05-07T17:01:24.020Z,24.20
2023-05-07T17:03:52.267Z,24.10
2023-05-07T17:06:20.465Z,24.00
2023-05-07T17:08:48.611Z,23.90
2023-05-07T17:11:16.741Z,23.70
2023-05-07T17:13:44.896Z,23.60
2023-05-07T17:16:13.076Z,23.50
2023-05-07T17:18:42.745Z,23.40
2023-05-07T17:21:10.866Z,23.30
2023-05-07T17:23:39.021Z,23.20
2023-05-07T17:26:13.680Z,23.10
2023-05-07T17:28:42.142Z,23.00
2023-05-07T17:31:10.485Z,22.90
2023-05-07T17:33:38.767Z,22.80
2023-05-07T17:36:08.724Z,22.70
2023-05-07T17:38:36.986Z,22.70
2023-05-07T17:41:05.164Z,22.50
2023-05-07T17:43:33.333Z,22.40
2023-05-07T17:46:02.917Z,22.40
2023-05-07T17:48:31.164Z,22.20
2023-05-07T17:51:03.146Z,22.10
2023-05-07T17:53:33.146Z,22.00
2023-05-07T17:56:01.337Z,21.90
2023-05-07T17:58:29.490Z,21.80
2023-05-07T18:00:57.848Z,21.60
2023-05-07T18:03:26.447Z,21.50
2023-05-07T18:05:57.667Z,21.40
2023-05-07T18:08:25.982Z,21.30
2023-05-07T18:10:55.715Z,21.20
2023-05-07T18:13:25.088Z,21.10
2023-05-07T18:15:53.740Z,21.00
2023-05-07T18:18:21.896Z,20.90
2023-05-07T18:20:53.128Z,20.80
2023-05-07T18:23:21.325Z,20.70
2023-05-07T18:25:49.473Z,20.60
2023-05-07T18:28:19.368Z,20.50
2023-05-07T18:30:47.560Z,20.50
2023-05-07T18:33:18.331Z,20.40
2023-05-07T18:35:46.482Z,20.30
2023-05-07T18:38:17.422Z,20.20
2023-05-07T18:40:45.650Z,20.20
2023-05-07T18:43:14.035Z,20.10
2023-05-07T18:45:43.619Z,20.00
2023-05-07T18:48:12.031Z,20.00
2023-05-07T18:50:43.812Z,19.90
2023-05-07T18:53:12.183Z,19.80
2023-05-07T18:55:40.505Z,19.80
2023-05-07T18:58:08.756Z,19.70
2023-05-07T19:00:36.949Z,19.60
2023-05-07T19:03:06.514Z,19.60
2023-05-07T19:05:34.753Z,19.50
2023-05-07T19:08:02.966Z,19.40
2023-05-07T19:10:31.198Z,19.40
2023-05-07T19:13:01.763Z,19.30
2023-05-07T19:15:30.100Z,19.20
2023-05-07T19:17:58.369Z,19.20
2023-05-07T19:20:28.092Z,19.10
2023-05-07T19:22:56.350Z,19.10
2023-05-07T19:25:27.975Z,19.00
2023-05-07T19:27:57.174Z,19.00
2023-05-07T19:30:25.655Z,18.90
2023-05-07T19:32:53.962Z,18.80
2023-05-07T19:35:22.693Z,18.80
2023-05-07T19:37:52.282Z,18.70
2023-05-07T19:40:20.615Z,18.70
2023-05-07T19:42:48.765Z,18.60
2023-05-07T19:45:17.308Z,18.60
2023-05-07T19:47:45.599Z,18.50
2023-05-07T19:50:14.135Z,18.50
2023-05-07T19:52:42.392Z,18.40
2023-05-07T19:55:12.728Z,18.40
2023-05-07T19:57:41.598Z,18.30
2023-05-07T20:00:11.640Z,18.30
2023-05-07T20:02:42.819Z,18.20
2023-05-07T20:05:13.798Z,18.20
2023-05-07T20:07:44.290Z,18.10
2023-05-07T20:10:14.454Z,18.00
2023-05-07T20:12:42.908Z,18.00
2023-05-07T20:15:12.466Z,17.90
2023-05-07T20:17:40.763Z,17.90
2023-05-07T20:20:11.166Z,17.80
2023-05-07T20:22:39.547Z,17.80
2023-05-07T20:25:10.414Z,17.70
2023-05-07T20:27:39.957Z,17.70
2023-05-07T20:30:09.743Z,17.60
2023-05-07T20:32:38.002Z,17.50
2023-05-07T20:35:07.184Z,17.50
2023-05-07T20:37:36.016Z,17.40
2023-05-07T20:40:05.501Z,17.40
2023-05-07T20:42:33.748Z,17.30
2023-05-07T20:45:04.179Z,17.30
2023-05-07T20:47:33.746Z,17.20
2023-05-07T20:50:02.155Z,17.20
2023-05-07T20:52:30.374Z,17.20
2023-05-07T20:54:58.571Z,17.20
2023-05-07T20:57:26.789Z,17.20
2023-05-07T20:59:55.104Z,17.10
2023-05-07T21:02:24.698Z,17.10
2023-05-07T21:04:52.932Z,17.10
2023-05-07T21:07:21.079Z,17.10
2023-05-07T21:09:49.258Z,17.10
2023-05-07T21:12:17.416Z,17.10
2023-05-07T21:14:45.662Z,17.10
2023-05-07T21:17:13.814Z,17.10
2023-05-07T21:19:44.002Z,17.00
2023-05-07T21:22:12.136Z,17.00
2023-05-07T21:24:41.185Z,17.00
2023-05-07T21:27:09.379Z,17.00
2023-05-07T21:29:37.557Z,16.90
2023-05-07T21:32:06.511Z,16.90
2023-05-07T21:34:35.183Z,16.90
2023-05-07T21:37:04.955Z,16.90
2023-05-07T21:39:33.039Z,16.80
2023-05-07T21:42:01.180Z,16.80
2023-05-07T21:44:30.705Z,16.80
2023-05-07T21:46:58.796Z,16.80
2023-05-07T21:49:26.978Z,16.70
2023-05-07T21:51:55.129Z,16.70
2023-05-07T21:54:24.626Z,16.70
2023-05-07T21:56:52.783Z,16.60
2023-05-07T21:59:20.902Z,16.60
2023-05-07T22:01:49.054Z,16.60
2023-05-07T22:04:17.201Z,16.60
2023-05-07T22:06:45.383Z,16.50
2023-05-07T22:09:13.924Z,16.50
2023-05-07T22:11:43.563Z,16.50
2023-05-07T22:14:11.697Z,16.50
2023-05-07T22:16:40.127Z,16.40
2023-05-07T22:19:08.370Z,16.40
2023-05-07T22:21:36.560Z,16.40
2023-05-07T22:24:07.098Z,16.40
2023-05-07T22:26:35.402Z,16.30
2023-05-07T22:29:05.054Z,16.30
2023-05-07T22:31:33.233Z,16.30
2023-05-07T22:34:01.539Z,16.30
2023-05-07T22:36:29.715Z,16.30
2023-05-07T22:38:57.895Z,16.30
2023-05-07T22:41:26.489Z,16.20
2023-05-07T22:43:54.772Z,16.20
2023-05-07T22:46:24.829Z,16.20
2023-05-07T22:48:53.138Z,16.20
2023-05-07T22:51:21.593Z,16.20
2023-05-07T22:53:49.710Z,16.10
2023-05-07T22:56:17.863Z,16.10
2023-05-07T22:58:46.921Z,16.10
2023-05-07T23:01:18.518Z,16.10
2023-05-07T23:03:48.249Z,16.10
2023-05-07T23:06:16.428Z,16.00
2023-05-07T23:08:44.608Z,16.00
2023-05-07T23:11:12.700Z,16.00
2023-05-07T23:13:40.847Z,16.00
2023-05-07T23:16:09.133Z,15.90
2023-05-07T23:18:37.329Z,15.90
2023-05-07T23:21:07.605Z,15.90
2023-05-07T23:23:36.058Z,15.90
2023-05-07T23:26:04.298Z,15.80
2023-05-07T23:28:32.442Z,15.80
2023-05-07T23:31:00.715Z,15.80
2023-05-07T23:33:28.886Z,15.80
2023-05-07T23:36:00.918Z,15.70
2023-05-07T23:38:30.717Z,15.70
2023-05-07T23:40:58.880Z,15.70
2023-05-07T23:43:27.334Z,15.60
2023-05-07T23:45:55.746Z,15.60
2023-05-07T23:48:24.020Z,15.50
2023-05-07T23:50:52.282Z,15.50
2023-05-07T23:53:20.468Z,15.50
2023-05-07T23:55:50.006Z,15.50
2023-05-07T23:58:18.248Z,15.40
